Carlton, Colorado
Current Conditions -  °F | °C
As of 12:53 AM on Monday 22 Dec 2014 (Local Time) from KLAA Reporting Station
Overcast Overcast  
Wind Chill: 34°   Ceiling: 9500
Heat Index: 43°   Visibility: 10mi
Dew Point: 36°   Wind: 20mph
Humidity: 76%   Direction: 330°NNW
Pressure: 29.62"   Gusts: 24mph
Location:  37.885°N, 102.667°W
Report Text: KLAA 220753Z AUTO 33017G21KT 10SM OVC095 06/02 A2962 RMK AO2 SLP013 T00610022
Loading
Personal Weather Stations






























Interactive Weather Map New forecast layout! Learn more

10-Day Weather Forecast

Advertisements
Track Severe Weather on mobile